createdAt,value
2023-03-13T00:00:31.178Z,5.89
2023-03-13T00:05:36.084Z,5.91
2023-03-13T00:10:47.334Z,5.95
2023-03-13T00:16:11.111Z,5.98
2023-03-13T00:21:13.583Z,5.99
2023-03-13T00:26:18.792Z,6.02
2023-03-13T00:31:22.677Z,6.06
2023-03-13T00:36:28.195Z,6.12
2023-03-13T00:41:50.981Z,6.13
2023-03-13T00:46:54.830Z,6.19
2023-03-13T00:52:03.077Z,6.21
2023-03-13T00:57:05.344Z,6.26
2023-03-13T01:02:07.555Z,6.22
2023-03-13T01:07:10.190Z,6.21
2023-03-13T01:12:15.348Z,6.18
2023-03-13T01:17:17.713Z,6.19
2023-03-13T01:22:19.852Z,6.18
2023-03-13T01:27:23.217Z,6.21
2023-03-13T01:32:28.570Z,6.19
2023-03-13T01:37:30.850Z,6.19
2023-03-13T01:42:50.090Z,6.24
2023-03-13T01:47:53.011Z,6.26
2023-03-13T01:53:04.344Z,6.27
2023-03-13T01:58:07.040Z,6.27
2023-03-13T02:03:14.880Z,6.27
2023-03-13T02:08:23.695Z,6.31
2023-03-13T02:13:28.475Z,6.33
2023-03-13T02:18:30.993Z,6.33
2023-03-13T02:23:44.903Z,6.38
2023-03-13T02:28:50.223Z,6.40
2023-03-13T02:33:58.177Z,6.44
2023-03-13T02:39:04.632Z,6.47
2023-03-13T02:44:10.354Z,6.44
2023-03-13T02:49:28.664Z,6.47
2023-03-13T02:54:35.947Z,6.49
2023-03-13T02:59:44.429Z,6.51
2023-03-13T03:04:47.895Z,6.56
2023-03-13T03:09:50.215Z,6.57
2023-03-13T03:14:54.463Z,6.57
2023-03-13T03:19:57.745Z,6.61
2023-03-13T03:25:00.447Z,6.65
2023-03-13T03:30:05.726Z,6.69
2023-03-13T03:35:12.915Z,6.71
2023-03-13T03:40:18.596Z,6.74
2023-03-13T03:45:21.155Z,6.78
2023-03-13T03:50:24.046Z,6.78
2023-03-13T03:55:31.184Z,6.83
2023-03-13T04:00:34.106Z,6.87
2023-03-13T04:05:42.193Z,6.90
2023-03-13T04:10:45.513Z,6.90
2023-03-13T04:15:50.982Z,6.98
2023-03-13T04:21:03.837Z,7.04
2023-03-13T04:26:13.173Z,7.07
2023-03-13T04:31:16.842Z,7.06
2023-03-13T04:36:36.806Z,7.04
2023-03-13T04:42:21.893Z,6.99
2023-03-13T04:48:03.508Z,6.97
2023-03-13T04:53:18.172Z,6.98
2023-03-13T04:59:03.836Z,7.00
2023-03-13T05:04:31.377Z,7.02
2023-03-13T05:09:52.571Z,7.04
2023-03-13T05:15:19.630Z,7.10
2023-03-13T05:20:31.648Z,7.07
2023-03-13T05:25:43.839Z,7.07
2023-03-13T05:30:56.519Z,7.06
2023-03-13T05:36:19.173Z,7.06
2023-03-13T05:41:40.565Z,6.97
2023-03-13T05:46:54.048Z,6.98
2023-03-13T05:52:15.673Z,7.05
2023-03-13T05:57:43.929Z,7.16
2023-03-13T06:03:03.684Z,7.25
2023-03-13T06:08:10.882Z,7.33
2023-03-13T06:13:19.806Z,7.39
2023-03-13T06:18:27.549Z,7.39
2023-03-13T06:23:40.118Z,7.51
2023-03-13T06:28:42.827Z,7.70
2023-03-13T06:33:45.248Z,8.00
2023-03-13T06:38:49.498Z,8.31
2023-03-13T06:43:51.539Z,8.62
2023-03-13T06:48:53.665Z,8.82
2023-03-13T06:53:55.917Z,9.04
2023-03-13T06:59:02.103Z,9.24
2023-03-13T07:04:04.397Z,9.38
2023-03-13T07:09:06.766Z,9.43
2023-03-13T07:14:16.923Z,9.40
2023-03-13T07:19:19.374Z,9.38
2023-03-13T07:24:22.459Z,9.41
2023-03-13T07:29:25.199Z,9.50
2023-03-13T07:34:27.924Z,9.65
2023-03-13T07:39:29.981Z,9.81
2023-03-13T07:44:33.521Z,10.04
2023-03-13T07:49:41.196Z,10.32
2023-03-13T07:54:48.642Z,10.53
2023-03-13T07:59:51.172Z,10.74
2023-03-13T08:04:58.774Z,10.94
2023-03-13T08:10:01.413Z,11.09
2023-03-13T08:15:04.253Z,11.25
2023-03-13T08:20:12.582Z,11.42
2023-03-13T08:25:15.158Z,11.59
2023-03-13T08:30:21.813Z,11.63
2023-03-13T08:35:24.078Z,11.73
2023-03-13T08:40:26.450Z,11.90
2023-03-13T08:45:29.199Z,12.12
2023-03-13T08:50:34.214Z,12.24
2023-03-13T08:55:44.253Z,12.38
2023-03-13T09:00:46.488Z,12.54
2023-03-13T09:05:56.040Z,12.65
2023-03-13T09:11:05.320Z,12.66
2023-03-13T09:16:10.818Z,12.66
2023-03-13T09:21:17.513Z,12.75
2023-03-13T09:26:23.200Z,12.98
2023-03-13T09:31:33.626Z,13.23
2023-03-13T09:36:36.929Z,13.68
2023-03-13T09:41:47.657Z,14.04
2023-03-13T09:47:05.442Z,14.05
2023-03-13T09:52:25.599Z,13.95
2023-03-13T09:57:34.911Z,13.72
2023-03-13T10:02:56.987Z,13.48
2023-03-13T10:08:15.604Z,13.35
2023-03-13T10:13:30.876Z,13.35
2023-03-13T10:18:33.553Z,13.44
2023-03-13T10:24:03.910Z,13.60
2023-03-13T10:29:29.349Z,13.62
2023-03-13T10:35:00.862Z,13.67
2023-03-13T10:40:27.755Z,13.80
2023-03-13T10:45:35.871Z,13.82
2023-03-13T10:50:43.242Z,13.86
2023-03-13T10:55:45.471Z,13.93
2023-03-13T11:00:49.111Z,14.01
2023-03-13T11:05:59.489Z,14.08
2023-03-13T11:11:17.078Z,13.97
2023-03-13T11:16:32.444Z,13.92
2023-03-13T11:22:23.591Z,13.92
2023-03-13T11:28:00.592Z,14.05
2023-03-13T11:33:10.126Z,14.26
2023-03-13T11:38:36.672Z,14.32
2023-03-13T11:43:50.058Z,14.38
2023-03-13T11:49:38.527Z,14.33
2023-03-13T11:55:24.072Z,14.30
2023-03-13T12:00:44.925Z,14.24
2023-03-13T12:05:58.373Z,14.10
2023-03-13T12:11:13.327Z,13.87
2023-03-13T12:16:23.792Z,13.67
2023-03-13T12:21:32.436Z,13.46
2023-03-13T12:26:44.750Z,13.33
2023-03-13T12:32:32.118Z,13.14
2023-03-13T12:38:03.028Z,12.83
2023-03-13T12:43:17.961Z,12.59
2023-03-13T12:48:46.263Z,12.32
2023-03-13T12:54:08.903Z,12.27
2023-03-13T12:59:19.271Z,12.14
2023-03-13T13:04:44.026Z,11.97
2023-03-13T13:10:03.051Z,12.13
2023-03-13T13:15:12.709Z,12.18
2023-03-13T13:20:38.972Z,12.23
2023-03-13T13:25:43.667Z,12.26
2023-03-13T13:30:51.007Z,12.20
2023-03-13T13:36:09.349Z,12.03
2023-03-13T13:41:12.519Z,12.11
2023-03-13T13:46:33.463Z,12.17
2023-03-13T13:51:41.520Z,11.93
2023-03-13T13:57:00.059Z,11.63
2023-03-13T14:02:50.967Z,11.48
2023-03-13T14:08:33.092Z,11.62
2023-03-13T14:13:35.593Z,11.67
2023-03-13T14:18:41.973Z,11.73
2023-03-13T14:23:47.374Z,11.80
2023-03-13T14:28:55.634Z,11.85
2023-03-13T14:34:18.219Z,11.96
2023-03-13T14:39:38.416Z,12.06
2023-03-13T14:44:42.964Z,12.16
2023-03-13T14:49:47.205Z,12.27
2023-03-13T14:55:28.963Z,12.36
2023-03-13T15:00:33.750Z,12.47
2023-03-13T15:05:36.999Z,12.52
2023-03-13T15:10:40.938Z,12.54
2023-03-13T15:15:43.493Z,12.52
2023-03-13T15:21:14.400Z,12.53
2023-03-13T15:26:17.357Z,12.47
2023-03-13T15:31:23.801Z,12.41
2023-03-13T15:36:28.348Z,12.32
2023-03-13T15:41:30.914Z,12.27
2023-03-13T15:46:33.289Z,12.24
2023-03-13T15:51:35.780Z,12.20
2023-03-13T15:56:38.886Z,12.20
2023-03-13T16:01:41.625Z,12.22
2023-03-13T16:06:44.432Z,12.23
2023-03-13T16:11:48.516Z,12.21
2023-03-13T16:16:52.824Z,12.22
2023-03-13T16:21:55.190Z,12.17
2023-03-13T16:26:57.799Z,12.20
2023-03-13T16:32:00.468Z,12.16
2023-03-13T16:37:02.598Z,12.16
2023-03-13T16:42:05.850Z,12.16
2023-03-13T16:47:20.906Z,12.16
2023-03-13T16:52:23.809Z,12.17
2023-03-13T16:57:27.293Z,12.20
2023-03-13T17:02:30.286Z,12.20
2023-03-13T17:07:32.496Z,12.14
2023-03-13T17:12:34.786Z,12.15
2023-03-13T17:17:38.697Z,12.18
2023-03-13T17:22:42.439Z,12.18
2023-03-13T17:27:47.629Z,12.17
2023-03-13T17:32:51.056Z,12.17
2023-03-13T17:37:53.768Z,12.19
2023-03-13T17:42:56.738Z,12.25
2023-03-13T17:47:58.951Z,12.18
2023-03-13T17:53:01.042Z,12.01
2023-03-13T17:58:04.488Z,11.86
2023-03-13T18:03:07.088Z,11.70
2023-03-13T18:08:11.531Z,11.54
2023-03-13T18:13:13.633Z,11.45
2023-03-13T18:18:17.566Z,11.40
2023-03-13T18:23:19.848Z,11.46
2023-03-13T18:28:24.713Z,11.45
2023-03-13T18:33:26.930Z,11.46
2023-03-13T18:38:32.336Z,11.42
2023-03-13T18:43:34.746Z,11.41
2023-03-13T18:48:37.485Z,11.39
2023-03-13T18:53:40.833Z,11.37
2023-03-13T18:58:43.554Z,11.28
2023-03-13T19:03:46.327Z,11.17
2023-03-13T19:08:51.124Z,11.15
2023-03-13T19:13:54.009Z,11.23
2023-03-13T19:18:57.601Z,11.28
2023-03-13T19:23:59.643Z,11.28
2023-03-13T19:29:02.576Z,11.32
2023-03-13T19:34:04.674Z,11.39
2023-03-13T19:39:20.506Z,11.54
2023-03-13T19:44:24.633Z,11.65
2023-03-13T19:49:26.934Z,11.59
2023-03-13T19:54:28.932Z,11.37
2023-03-13T19:59:32.041Z,11.29
2023-03-13T20:04:34.383Z,11.27
2023-03-13T20:09:36.822Z,11.24
2023-03-13T20:14:39.401Z,11.27
2023-03-13T20:19:42.565Z,11.29
2023-03-13T20:24:44.798Z,11.31
2023-03-13T20:29:47.057Z,11.32
2023-03-13T20:34:49.163Z,11.58
2023-03-13T20:39:51.131Z,11.63
2023-03-13T20:44:55.433Z,11.76
2023-03-13T20:49:58.569Z,11.79
2023-03-13T20:55:00.863Z,11.71
2023-03-13T21:00:07.692Z,11.52
2023-03-13T21:05:10.008Z,11.37
2023-03-13T21:10:18.965Z,11.33
2023-03-13T21:15:21.927Z,11.21
2023-03-13T21:20:25.210Z,11.08
2023-03-13T21:25:27.942Z,10.99
2023-03-13T21:30:31.151Z,10.91
2023-03-13T21:35:33.461Z,10.77
2023-03-13T21:40:35.884Z,10.65
2023-03-13T21:45:39.235Z,10.54
2023-03-13T21:50:41.420Z,10.44
2023-03-13T21:55:43.478Z,10.36
2023-03-13T22:00:45.853Z,10.25
2023-03-13T22:05:48.196Z,10.15
2023-03-13T22:10:55.985Z,10.08
2023-03-13T22:15:58.116Z,10.02
2023-03-13T22:21:00.993Z,9.92
2023-03-13T22:26:04.087Z,9.94
2023-03-13T22:31:08.298Z,9.98
2023-03-13T22:36:11.430Z,10.11
2023-03-13T22:41:17.425Z,10.14
2023-03-13T22:46:22.726Z,10.15
2023-03-13T22:51:26.462Z,10.10
2023-03-13T22:56:48.494Z,10.08
2023-03-13T23:01:50.610Z,10.10
2023-03-13T23:06:53.355Z,10.14
2023-03-13T23:11:55.688Z,10.07
2023-03-13T23:16:58.323Z,10.05
2023-03-13T23:22:00.924Z,10.06
2023-03-13T23:27:03.463Z,10.06
2023-03-13T23:32:06.675Z,10.03
2023-03-13T23:37:08.805Z,10.03
2023-03-13T23:42:10.933Z,10.01
2023-03-13T23:47:13.966Z,9.98
2023-03-13T23:52:16.245Z,9.95
2023-03-13T23:57:19.440Z,9.94
